METAR Data
IDs: Format: Raw Decoded Include TAF

Data at: 1733 UTC 19 Sep 2018

KIFA 191715Z AUTO 30003KT 10SM RA SCT006 BKN050 OVC060 21/19 A3006 RMK AO2 P0001 T02050191
KIFA 191655Z AUTO 01005KT 10SM SCT005 BKN010 OVC060 20/19 A3003 RMK AO2 T02000191
KIFA 191635Z AUTO 34010KT 10SM SCT005 BKN065 OVC120 20/20 A3002 RMK AO2 T02020195
KIFA 191615Z AUTO 12007KT 10SM SCT003 SCT065 SCT120 20/20 A2997 RMK AO2 T02010198
KIFA 191555Z AUTO 10007KT 7SM BKN003 19/19 A2996 RMK AO2 P0003 T01930190
KIFA 191535Z AUTO 10008KT 3SM -RA OVC003 19/18 A2995 RMK AO2 P0003 T01850182
KIFA 191515Z AUTO 09010G14KT 2SM RA BKN003 OVC009 18/18 A2997 RMK AO2 P0002 T01810178
KIFA 191455Z AUTO 02005KT 2SM RA BKN003 BKN050 OVC065 18/18 A3003 RMK AO2 P0015 60108 T01820180
KIFA 191435Z AUTO 33006KT 2SM +RA SCT005 BKN070 OVC080 18/18 A3005 RMK AO2 P0008 T01840180
KIFA 191415Z AUTO 06004KT 3SM RA SCT018 BKN070 OVC085 20/19 A3003 RMK AO2 P0004 T01950190
KIFA 191355Z AUTO 21005KT 2SM +RA BKN008 BKN018 OVC030 19/19 A3003 RMK AO2 P0089 T01930190
KIFA 191335Z AUTO 19004KT 3/4SM +RA BKN005 OVC013 18/18 A3003 RMK AO2 P0065 T01820178
KIFA 191315Z AUTO 18003KT 4SM +RA BKN007 OVC023 18/18 A3001 RMK AO2 P0009 T01810175
KIFA 191255Z AUTO 00000KT 5SM RA BKN007 BKN026 OVC060 18/18 A3000 RMK AO2 P0003 T01800175
KIFA 191235Z AUTO 00000KT 7SM RA SCT044 BKN060 OVC110 18/17 A2999 RMK AO2 P0001 T01800174
KIFA 191215Z AUTO 12006KT 7SM BKN044 OVC065 18/17 A2997 RMK AO2 T01800173
KIFA 191155Z AUTO 10004KT 7SM SCT016 BKN044 BKN065 18/17 A2997 RMK AO2 70038 T01780172 10178 20165
KIFA 191135Z AUTO 12005KT 7SM OVC016 18/17 A2996 RMK AO2 T01780172
KIFA 191115Z AUTO 11005KT 7SM OVC018 18/17 A2996 RMK AO2 T01780172
KIFA 191055Z AUTO 10005KT 7SM OVC018 18/17 A2997 RMK AO2 T01770172
KIFA 191035Z AUTO 11004KT 7SM SCT004 OVC018 18/17 A2997 RMK AO2 T01760171
KIFA 191015Z AUTO 10004KT 7SM BKN004 OVC020 18/17 A2997 RMK AO2 T01750171
KIFA 190955Z AUTO 10004KT 7SM OVC004 17/17 A2996 RMK AO2 T01740170
KIFA 190935Z AUTO 09004KT 10SM OVC004 17/17 A2997 RMK AO2 T01720168
KIFA 190915Z AUTO 10003KT 7SM BKN006 BKN023 OVC060 17/17 A2997 RMK AO2 T01690165
KIFA 190855Z AUTO 09004KT 10SM SCT023 BKN060 17/16 A2997 RMK AO2 T01670163
KIFA 190835Z AUTO 10004KT 10SM CLR 17/16 A2997 RMK AO2 T01650160
KIFA 190815Z AUTO 12003KT 10SM CLR 17/16 A2997 RMK AO2 T01650160
KIFA 190755Z AUTO 09004KT 10SM CLR 17/16 A2997 RMK AO2 T01690163
KIFA 190735Z AUTO 09004KT 10SM CLR 17/17 A2998 RMK AO2 T01700165
KIFA 190715Z AUTO 09005KT 10SM CLR 17/17 A2999 RMK AO2 T01730166
KIFA 190655Z AUTO 09007KT 10SM CLR 17/17 A2999 RMK AO2 T01740167
KIFA 190635Z AUTO 09006KT 10SM CLR 17/17 A2999 RMK AO2 T01730167
KIFA 190615Z AUTO 09006KT 10SM CLR 17/17 A2999 RMK AO2 T01740169
KIFA 190555Z AUTO 08008KT 10SM CLR 17/17 A2999 RMK AO2 T01740170 10197 20160 402300160
KIFA 190535Z AUTO 07006KT 10SM CLR 17/17 A3000 RMK AO2 T01700166
KIFA 190515Z AUTO 07005KT 10SM CLR 17/17 A3000 RMK AO2 T01690165
KIFA 190455Z AUTO 07006KT 7SM CLR 16/16 A3000 RMK AO2 T01640161
KIFA 190435Z AUTO 07003KT 10SM CLR 17/16 A3000 RMK AO2 T01680164
KIFA 190415Z AUTO 00000KT 7SM CLR 17/16 A3000 RMK AO2 T01650161
KIFA 190355Z AUTO 07003KT 10SM CLR 17/17 A3000 RMK AO2 T01700166
KIFA 190335Z AUTO 05003KT 10SM CLR 17/17 A2999 RMK AO2 T01680165
KIFA 190315Z AUTO 04004KT 10SM CLR 17/17 A2999 RMK AO2 T01690165
KIFA 190255Z AUTO 04004KT 10SM CLR 17/17 A2999 RMK AO2 T01700166
KIFA 190235Z AUTO 01004KT 7SM CLR 16/16 A2999 RMK AO2 T01610157
KIFA 190215Z AUTO 00000KT 5SM BR CLR 16/16 A2998 RMK AO2 T01610155
KIFA 190155Z AUTO 00000KT 10SM CLR 17/17 A2996 RMK AO2 T01740167
KIFA 190135Z AUTO 07003KT 10SM CLR 17/17 A2996 RMK AO2 T01730165
KIFA 190115Z AUTO 09003KT 10SM CLR 18/17 A2995 RMK AO2 T01770169
KIFA 190055Z AUTO 00000KT 10SM CLR 18/17 A2995 RMK AO2 T01820172
KIFA 190035Z AUTO 13003KT 10SM CLR 18/17 A2994 RMK AO2 T01810171
KIFA 190015Z AUTO 11003KT 10SM CLR 19/18 A2994 RMK AO2 T01910175
KIFA 182355Z AUTO 00000KT 10SM CLR 20/18 A2994 RMK AO2 60006 T01970177 10205 20177
KIFA 182335Z AUTO 11004KT 10SM CLR 20/18 A2994 RMK AO2 T02020179
KIFA 182315Z AUTO 13004KT 10SM CLR 20/18 A2994 RMK AO2 T02010180
KIFA 182255Z AUTO 13005KT 10SM CLR 20/18 A2994 RMK AO2 T02030179
KIFA 182235Z AUTO 13006KT 10SM CLR 20/18 A2995 RMK AO2 T02000177
KIFA 182215Z AUTO 13010KT 10SM CLR 20/18 A2994 RMK AO2 T02000177
KIFA 182155Z AUTO 17003KT 10SM CLR 20/18 A2996 RMK AO2 T02000175
KIFA 182135Z AUTO 08004KT 10SM SCT017 SCT031 SCT048 20/18 A2995 RMK AO2 T01980177
KIFA 182115Z AUTO 14008KT 10SM SCT049 SCT070 BKN120 20/18 A2993 RMK AO2 T01970177
KIFA 182055Z AUTO 12006KT 10SM CLR 20/18 A2996 RMK AO2 60006 T01980177
KIFA 182035Z AUTO 12005KT 10SM CLR 20/18 A2997 RMK AO2 T01960177
KIFA 182015Z AUTO 10005KT 10SM CLR 20/18 A2997 RMK AO2 T01950175
KIFA 181955Z AUTO 12010G23KT 10SM -DZ SCT120 19/17 A2994 RMK AO2 T01890171
KIFA 181935Z AUTO 14014G19KT 10SM -RA SCT033 SCT050 OVC120 19/17 A2997 RMK AO2 T01850173
KIFA 181915Z AUTO 15013G17KT 10SM SCT035 SCT050 BKN120 18/17 A2999 RMK AO2 T01830172
KIFA 181855Z AUTO 09014G18KT 10SM -RA SCT037 BKN070 OVC090 18/17 A2996 RMK AO2 P0006 T01780170
KIFA 181835Z AUTO 10009KT 10SM RA SCT041 BKN070 OVC100 18/17 A3004 RMK AO2 P0004 T01780170
KIFA 181815Z AUTO 07006KT 10SM RA SCT010 SCT034 OVC065 18/17 A3007 RMK AO2 P0002 T01790169
KIFA 181755Z AUTO 00000KT 5SM RA SCT010 SCT033 OVC065 18/17 A3010 RMK AO2 P0006 60032 T01800169 10230 20172
KIFA 181735Z AUTO 06006KT 10SM RA SCT012 OVC065 18/17 A3008 RMK AO2 T01810166
KIFA 181715Z AUTO 05008G17KT 10SM SCT012 BKN065 OVC075 18/17 A3006 RMK AO2 T01830167
KIFA 181655Z AUTO 08016G21KT 10SM SCT010 OVC075 18/17 A3004 RMK AO2 P0001 T01810166
KIFA 181635Z AUTO 07016G21KT 10SM BKN010 OVC075 18/17 A3004 RMK AO2 P0001 T01780165
KIFA 181615Z AUTO 08015G23KT 10SM -RA BKN010 OVC070 18/17 A3005 RMK AO2 P0001 T01760165
KIFA 181555Z AUTO 06011G21KT 10SM BKN010 OVC070 18/17 A3007 RMK AO2 P0004 T01770165
KIFA 181535Z AUTO 07020G27KT 10SM BKN008 BKN012 OVC030 17/17 A3006 RMK AO2 P0004 T01730165
KIFA 181515Z AUTO 06015G22KT 10SM -RA BKN008 BKN017 OVC065 17/17 A3006 RMK AO2 P0004 T01720165
KIFA 181455Z AUTO 03018G26KT 1 1/2SM -RA BKN008 OVC012 18/17 A3006 RMK AO2 P0020 60020 T01760167
KIFA 181435Z AUTO 05016G27KT 10SM -RA SCT022 OVC030 19/16 A3001 RMK AO2 T01900164
KIFA 181415Z AUTO 06016G29KT 10SM SCT015 OVC019 20/17 A2999 RMK AO2 T01970166
KIFA 181355Z AUTO 02022G26KT 10SM SCT013 SCT050 BKN060 21/18 A2998 RMK AO2 T02120181
KIFA 181335Z AUTO 19004KT 10SM SCT080 23/20 A2993 RMK AO2 T02260196
KIFA 181315Z AUTO 17006KT 10SM SCT075 21/19 A2993 RMK AO2 T02120191
KIFA 181255Z AUTO 14003KT 10SM BKN075 BKN085 20/19 A2993 RMK AO2 T02010188
KIFA 181235Z AUTO 14005KT 10SM SCT075 19/18 A2993 RMK AO2 T01920183
KIFA 181215Z AUTO 14005KT 10SM SCT065 19/18 A2993 RMK AO2 T01900181
KIFA 181155Z AUTO 14004KT 10SM BKN065 19/18 A2993 RMK AO2 T01900180 10200 20187
KIFA 181135Z AUTO 14004KT 10SM BKN065 19/18 A2993 RMK AO2 T01880180
KIFA 181115Z AUTO 13003KT 10SM SCT065 19/18 A2994 RMK AO2 T01880178
KIFA 181055Z AUTO 14004KT 10SM CLR 19/18 A2993 RMK AO2 T01900180
KIFA 181035Z AUTO 13003KT 10SM CLR 19/18 A2993 RMK AO2 T01920181
KIFA 181015Z AUTO 13003KT 10SM CLR 19/18 A2993 RMK AO2 T01930181
KIFA 180955Z AUTO 15003KT 10SM CLR 20/18 A2993 RMK AO2 T01970182
KIFA 180935Z AUTO 16004KT 10SM CLR 20/18 A2993 RMK AO2 T01980182
KIFA 180915Z AUTO 16006KT 10SM CLR 20/18 A2993 RMK AO2 T01980181
KIFA 180855Z AUTO 16006KT 10SM CLR 20/18 A2993 RMK AO2 T01970180
KIFA 180835Z AUTO 16007KT 10SM CLR 20/18 A2993 RMK AO2 T02000181
KIFA 180815Z AUTO 16007KT 10SM CLR 20/18 A2994 RMK AO2 T01970180
KIFA 180755Z AUTO 15007KT 10SM CLR 19/18 A2994 RMK AO2 T01940177
KIFA 180735Z AUTO 15005KT 10SM CLR 19/18 A2995 RMK AO2 T01910175
KIFA 180715Z AUTO 15006KT 10SM CLR 19/17 A2996 RMK AO2 T01910173
KIFA 180655Z AUTO 14005KT 10SM CLR 20/17 A2997 RMK AO2 T01950173
KIFA 180635Z AUTO 14004KT 10SM CLR 19/17 A2997 RMK AO2 T01920172
KIFA 180615Z AUTO 13004KT 10SM CLR 19/17 A2997 RMK AO2 T01910171
KIFA 180555Z AUTO 14003KT 10SM CLR 19/17 A2998 RMK AO2 T01900170 10222 20190
KIFA 180535Z AUTO 00000KT 10SM CLR 19/17 A2998 RMK AO2 T01900170